createdAt,value
2018-11-01T00:00:48.029Z,26.20
2018-11-01T00:03:19.843Z,26.20
2018-11-01T00:05:51.139Z,26.10
2018-11-01T00:08:22.472Z,26.10
2018-11-01T00:10:53.569Z,26.10
2018-11-01T00:13:24.973Z,26.10
2018-11-01T00:15:56.256Z,26.10
2018-11-01T00:18:28.023Z,26.00
2018-11-01T00:20:59.244Z,26.00
2018-11-01T00:23:30.767Z,26.00
2018-11-01T00:26:01.857Z,26.00
2018-11-01T00:28:33.268Z,26.00
2018-11-01T00:31:04.464Z,26.00
2018-11-01T00:33:37.544Z,26.00
2018-11-01T00:36:08.784Z,26.00
2018-11-01T00:38:40.199Z,26.00
2018-11-01T00:41:11.401Z,25.90
2018-11-01T00:43:42.720Z,26.00
2018-11-01T00:46:13.890Z,26.00
2018-11-01T00:48:45.499Z,25.90
2018-11-01T00:51:16.660Z,25.90
2018-11-01T00:53:48.189Z,25.90
2018-11-01T00:56:19.487Z,25.90
2018-11-01T00:58:50.936Z,25.80
2018-11-01T01:01:22.168Z,25.90
2018-11-01T01:03:54.197Z,25.90
2018-11-01T01:06:25.376Z,25.80
2018-11-01T01:08:56.889Z,25.80
2018-11-01T01:11:28.269Z,25.80
2018-11-01T01:14:00.006Z,25.80
2018-11-01T01:16:31.411Z,25.80
2018-11-01T01:19:04.520Z,25.80
2018-11-01T01:21:35.789Z,25.70
2018-11-01T01:24:07.567Z,25.70
2018-11-01T01:26:38.716Z,25.70
2018-11-01T01:29:10.372Z,25.70
2018-11-01T01:31:41.440Z,25.70
2018-11-01T01:34:13.271Z,25.60
2018-11-01T01:36:44.324Z,25.70
2018-11-01T01:39:15.891Z,25.60
2018-11-01T01:41:47.707Z,25.50
2018-11-01T01:44:19.364Z,25.50
2018-11-01T01:46:50.675Z,25.50
2018-11-01T01:49:23.156Z,25.50
2018-11-01T01:51:54.126Z,25.50
2018-11-01T01:54:25.604Z,25.50
2018-11-01T01:56:56.559Z,25.50
2018-11-01T01:59:27.856Z,25.60
2018-11-01T02:01:58.944Z,25.50
2018-11-01T02:04:30.169Z,25.50
2018-11-01T02:07:01.520Z,25.50
2018-11-01T02:09:34.324Z,25.50
2018-11-01T02:12:05.583Z,25.50
2018-11-01T02:14:37.007Z,25.50
2018-11-01T02:17:08.292Z,25.50
2018-11-01T02:19:39.502Z,25.50
2018-11-01T02:22:10.764Z,25.50
2018-11-01T02:24:43.100Z,25.50
2018-11-01T02:27:14.224Z,25.40
2018-11-01T02:29:46.113Z,25.40
2018-11-01T02:32:17.065Z,25.40
2018-11-01T02:34:48.599Z,25.40
2018-11-01T02:37:19.682Z,25.40
2018-11-01T02:39:51.332Z,25.40
2018-11-01T02:42:22.354Z,25.40
2018-11-01T02:44:54.077Z,25.40
2018-11-01T02:47:25.156Z,25.50
2018-11-01T02:49:57.171Z,25.50
2018-11-01T02:52:28.572Z,25.50
2018-11-01T02:55:01.109Z,25.50
2018-11-01T02:57:32.379Z,25.60
2018-11-01T03:00:04.040Z,25.60
2018-11-01T03:02:35.437Z,25.70
2018-11-01T03:05:08.292Z,25.70
2018-11-01T03:07:39.799Z,25.70
2018-11-01T03:10:14.480Z,25.80
2018-11-01T03:12:45.731Z,25.80
2018-11-01T03:15:17.099Z,25.90
2018-11-01T03:17:48.355Z,26.00
2018-11-01T03:20:19.880Z,26.10
2018-11-01T03:22:50.891Z,26.50
2018-11-01T03:25:22.197Z,28.00
2018-11-01T03:27:53.452Z,29.20
2018-11-01T03:30:25.168Z,28.90
2018-11-01T03:32:56.380Z,28.20
2018-11-01T03:35:27.780Z,27.80
2018-11-01T03:37:59.114Z,27.70
2018-11-01T03:40:30.432Z,27.80
2018-11-01T03:43:02.208Z,27.80
2018-11-01T03:45:33.870Z,27.90
2018-11-01T03:48:05.367Z,28.00
2018-11-01T03:50:36.820Z,28.20
2018-11-01T03:53:08.232Z,28.40
2018-11-01T03:55:39.750Z,28.60
2018-11-01T03:58:11.001Z,28.70
2018-11-01T04:00:42.396Z,28.80
2018-11-01T04:03:13.592Z,28.90
2018-11-01T04:05:45.131Z,29.00
2018-11-01T04:08:16.500Z,29.20
2018-11-01T04:10:49.024Z,29.40
2018-11-01T04:13:20.437Z,29.60
2018-11-01T04:15:51.728Z,30.00
2018-11-01T04:18:23.172Z,30.10
2018-11-01T04:20:54.825Z,30.20
2018-11-01T04:23:26.121Z,30.10
2018-11-01T04:25:57.672Z,30.30
2018-11-01T04:28:28.952Z,30.40
2018-11-01T04:31:00.388Z,30.50
2018-11-01T04:33:31.678Z,30.50
2018-11-01T04:36:03.300Z,30.40
2018-11-01T04:38:34.499Z,30.70
2018-11-01T04:41:06.138Z,30.60
2018-11-01T04:43:37.300Z,30.80
2018-11-01T04:46:08.955Z,30.90
2018-11-01T04:48:40.115Z,30.60
2018-11-01T04:51:11.848Z,30.50
2018-11-01T04:53:42.989Z,30.70
2018-11-01T04:56:14.604Z,31.00
2018-11-01T04:58:45.660Z,31.40
2018-11-01T05:01:22.495Z,31.40
2018-11-01T05:03:55.540Z,31.50
2018-11-01T05:06:27.152Z,31.70
2018-11-01T05:08:58.296Z,31.80
2018-11-01T05:11:31.292Z,32.30
2018-11-01T05:14:02.560Z,33.30
2018-11-01T05:16:34.304Z,34.40
2018-11-01T05:19:05.552Z,34.70
2018-11-01T05:21:37.512Z,34.70
2018-11-01T05:24:08.996Z,34.60
2018-11-01T05:26:40.928Z,34.90
2018-11-01T05:29:12.020Z,35.00
2018-11-01T05:31:43.604Z,34.90
2018-11-01T05:34:14.904Z,34.70
2018-11-01T05:36:46.618Z,34.30
2018-11-01T05:39:17.765Z,34.30
2018-11-01T05:41:49.243Z,33.90
2018-11-01T05:44:20.406Z,33.20
2018-11-01T05:46:52.156Z,33.00
2018-11-01T05:49:23.539Z,32.70
2018-11-01T05:51:55.400Z,32.50
2018-11-01T05:54:26.615Z,32.40
2018-11-01T05:56:58.302Z,32.20
2018-11-01T05:59:29.516Z,32.40
2018-11-01T06:02:05.210Z,32.70
2018-11-01T06:04:36.416Z,32.40
2018-11-01T06:07:07.956Z,33.00
2018-11-01T06:09:39.220Z,32.90
2018-11-01T06:12:11.783Z,33.90
2018-11-01T06:14:43.385Z,34.40
2018-11-01T06:17:14.788Z,34.90
2018-11-01T06:19:45.975Z,35.20
2018-11-01T06:22:17.728Z,35.30
2018-11-01T06:24:49.398Z,35.10
2018-11-01T06:27:21.069Z,34.40
2018-11-01T06:29:52.512Z,33.90
2018-11-01T06:32:24.370Z,32.80
2018-11-01T06:34:59.815Z,32.70
2018-11-01T06:37:31.172Z,32.10
2018-11-01T06:40:02.238Z,33.00
2018-11-01T06:42:33.738Z,32.70
2018-11-01T06:45:05.285Z,32.30
2018-11-01T06:47:36.920Z,32.60
2018-11-01T06:50:08.937Z,33.20
2018-11-01T06:52:40.655Z,33.40
2018-11-01T06:55:12.779Z,33.40
2018-11-01T06:57:44.571Z,33.40
2018-11-01T07:00:16.660Z,33.10
2018-11-01T07:02:48.207Z,33.30
2018-11-01T07:05:19.328Z,33.30
2018-11-01T07:07:50.796Z,32.30
2018-11-01T07:10:21.916Z,32.00
2018-11-01T07:12:54.404Z,32.60
2018-11-01T07:15:25.852Z,32.70
2018-11-01T07:17:57.697Z,32.60
2018-11-01T07:20:29.778Z,32.60
2018-11-01T07:23:01.561Z,33.00
2018-11-01T07:25:32.750Z,33.10
2018-11-01T07:28:05.863Z,32.90
2018-11-01T07:30:37.025Z,33.00
2018-11-01T07:33:08.612Z,33.10
2018-11-01T07:35:39.756Z,33.90
2018-11-01T07:38:11.070Z,33.90
2018-11-01T07:40:42.281Z,34.70
2018-11-01T07:43:13.621Z,34.10
2018-11-01T07:45:44.808Z,33.20
2018-11-01T07:48:16.275Z,33.00
2018-11-01T07:50:47.491Z,33.00
2018-11-01T07:53:19.067Z,32.90
2018-11-01T07:55:50.394Z,33.40
2018-11-01T07:58:22.125Z,33.20
2018-11-01T08:00:53.320Z,33.40
2018-11-01T08:03:24.700Z,33.00
2018-11-01T08:05:55.912Z,32.90
2018-11-01T08:08:27.412Z,32.50
2018-11-01T08:10:58.528Z,32.80
2018-11-01T08:13:31.401Z,33.20
2018-11-01T08:16:02.960Z,32.70
2018-11-01T08:18:34.680Z,32.10
2018-11-01T08:21:10.561Z,31.70
2018-11-01T08:23:41.994Z,31.70
2018-11-01T08:26:13.147Z,31.80
2018-11-01T08:28:44.615Z,32.10
2018-11-01T08:31:15.913Z,32.20
2018-11-01T08:33:47.412Z,31.80
2018-11-01T08:36:18.537Z,32.00
2018-11-01T08:38:50.298Z,31.90
2018-11-01T08:41:21.671Z,32.00
2018-11-01T08:43:53.091Z,31.50
2018-11-01T08:46:24.679Z,31.30
2018-11-01T08:48:56.884Z,31.30
2018-11-01T08:51:28.472Z,31.40
2018-11-01T08:53:59.979Z,31.30
2018-11-01T08:56:31.395Z,31.40
2018-11-01T08:59:03.088Z,31.80
2018-11-01T09:01:34.391Z,31.60
2018-11-01T09:04:05.783Z,31.60
2018-11-01T09:06:38.515Z,31.30
2018-11-01T09:09:10.825Z,31.30
2018-11-01T09:11:41.899Z,31.00
2018-11-01T09:14:14.590Z,30.90
2018-11-01T09:16:45.792Z,30.90
2018-11-01T09:19:17.258Z,30.80
2018-11-01T09:21:48.411Z,30.80
2018-11-01T09:24:19.523Z,30.70
2018-11-01T09:26:50.839Z,31.10
2018-11-01T09:29:22.072Z,31.50
2018-11-01T09:31:53.290Z,31.60
2018-11-01T09:34:25.013Z,32.10
2018-11-01T09:36:56.247Z,32.10
2018-11-01T09:39:28.268Z,32.00
2018-11-01T09:41:59.306Z,33.00
2018-11-01T09:44:30.765Z,33.30
2018-11-01T09:47:04.751Z,33.30
2018-11-01T09:49:35.682Z,33.40
2018-11-01T09:52:07.849Z,33.40
2018-11-01T09:54:39.532Z,33.40
2018-11-01T09:57:10.760Z,33.30
2018-11-01T09:59:42.272Z,33.40
2018-11-01T10:02:13.260Z,33.60
2018-11-01T10:04:45.275Z,33.30
2018-11-01T10:07:16.577Z,33.30
2018-11-01T10:09:48.036Z,33.40
2018-11-01T10:12:19.580Z,33.40
2018-11-01T10:14:52.578Z,33.50
2018-11-01T10:17:24.288Z,33.50
2018-11-01T10:19:55.448Z,33.30
2018-11-01T10:22:26.907Z,33.20
2018-11-01T10:24:58.211Z,33.20
2018-11-01T10:27:29.536Z,33.20
2018-11-01T10:30:01.132Z,33.20
2018-11-01T10:32:32.224Z,33.20
2018-11-01T10:35:03.445Z,33.20
2018-11-01T10:37:34.617Z,33.10
2018-11-01T10:40:06.663Z,33.20
2018-11-01T10:42:37.741Z,33.00
2018-11-01T10:45:09.796Z,32.90
2018-11-01T10:47:41.228Z,32.80
2018-11-01T10:50:17.556Z,32.70
2018-11-01T10:52:48.757Z,32.70
2018-11-01T10:55:20.055Z,32.60
2018-11-01T10:57:51.288Z,32.60
2018-11-01T11:00:27.743Z,32.60
2018-11-01T11:02:58.784Z,32.50
2018-11-01T11:05:30.111Z,32.50
2018-11-01T11:08:02.197Z,32.40
2018-11-01T11:10:34.219Z,32.30
2018-11-01T11:13:05.824Z,32.30
2018-11-01T11:15:38.362Z,32.30
2018-11-01T11:18:09.668Z,32.40
2018-11-01T11:20:41.086Z,32.30
2018-11-01T11:23:12.197Z,32.30
2018-11-01T11:25:43.562Z,32.30
2018-11-01T11:28:15.084Z,32.40
2018-11-01T11:30:46.647Z,32.50
2018-11-01T11:33:17.929Z,32.60
2018-11-01T11:35:50.566Z,32.40
2018-11-01T11:38:24.905Z,32.30
2018-11-01T11:40:56.332Z,32.30
2018-11-01T11:43:27.471Z,32.30
2018-11-01T11:45:59.624Z,32.20
2018-11-01T11:48:31.016Z,32.10
2018-11-01T11:51:02.335Z,32.00
2018-11-01T11:53:33.484Z,32.00
2018-11-01T11:56:06.219Z,32.00
2018-11-01T11:58:37.175Z,31.90
2018-11-01T12:01:08.695Z,31.70
2018-11-01T12:03:39.977Z,31.80
2018-11-01T12:06:11.981Z,31.70
2018-11-01T12:08:43.399Z,31.60
2018-11-01T12:11:14.745Z,31.60
2018-11-01T12:13:46.083Z,31.60
2018-11-01T12:16:19.064Z,31.60
2018-11-01T12:18:50.217Z,31.50
2018-11-01T12:21:21.772Z,31.50
2018-11-01T12:23:53.089Z,31.50
2018-11-01T12:26:24.949Z,31.50
2018-11-01T12:28:55.972Z,31.40
2018-11-01T12:31:27.487Z,31.30
2018-11-01T12:33:58.666Z,31.30
2018-11-01T12:36:29.977Z,31.30
2018-11-01T12:39:01.561Z,31.20
2018-11-01T12:41:33.376Z,31.20
2018-11-01T12:44:05.016Z,31.20
2018-11-01T12:46:36.899Z,31.20
2018-11-01T12:49:08.360Z,31.10
2018-11-01T12:51:39.823Z,31.10
2018-11-01T12:54:11.964Z,31.00
2018-11-01T12:56:44.388Z,31.00
2018-11-01T12:59:15.630Z,30.90
2018-11-01T13:01:47.935Z,31.00
2018-11-01T13:04:20.009Z,30.90
2018-11-01T13:06:51.599Z,30.80
2018-11-01T13:09:22.760Z,30.80
2018-11-01T13:11:54.448Z,30.80
2018-11-01T13:14:25.658Z,30.80
2018-11-01T13:16:58.569Z,30.80
2018-11-01T13:19:29.969Z,30.90
2018-11-01T13:22:04.269Z,30.90
2018-11-01T13:24:35.567Z,30.80
2018-11-01T13:27:08.172Z,30.90
2018-11-01T13:29:40.482Z,30.90
2018-11-01T13:32:12.374Z,30.70
2018-11-01T13:34:43.689Z,30.70
2018-11-01T13:37:15.316Z,30.70
2018-11-01T13:39:46.535Z,30.70
2018-11-01T13:42:17.744Z,30.60
2018-11-01T13:44:48.960Z,30.60
2018-11-01T13:47:21.165Z,30.50
2018-11-01T13:49:52.243Z,30.50
2018-11-01T13:52:23.604Z,30.60
2018-11-01T13:54:54.787Z,30.50
2018-11-01T13:57:26.541Z,30.50
2018-11-01T13:59:57.513Z,30.40
2018-11-01T14:02:31.844Z,30.30
2018-11-01T14:05:03.672Z,30.30
2018-11-01T14:07:35.367Z,30.30
2018-11-01T14:10:07.257Z,30.30
2018-11-01T14:12:39.941Z,30.30
2018-11-01T14:15:12.045Z,30.30
2018-11-01T14:17:45.679Z,30.30
2018-11-01T14:20:17.177Z,30.20
2018-11-01T14:22:49.012Z,30.30
2018-11-01T14:25:20.324Z,30.20
2018-11-01T14:27:51.524Z,30.20
2018-11-01T14:30:22.900Z,30.20
2018-11-01T14:33:11.288Z,30.20
2018-11-01T14:35:54.771Z,30.20
2018-11-01T14:38:26.913Z,30.10
2018-11-01T14:40:58.391Z,30.20
2018-11-01T14:43:29.547Z,30.10
2018-11-01T14:46:00.712Z,30.10
2018-11-01T14:48:35.862Z,30.10
2018-11-01T14:51:07.141Z,30.10
2018-11-01T14:53:40.258Z,30.10
2018-11-01T14:56:12.340Z,30.10
2018-11-01T14:58:44.152Z,30.10
2018-11-01T15:01:14.623Z,30.10
2018-11-01T15:03:50.319Z,30.10
2018-11-01T15:06:22.940Z,30.10
2018-11-01T15:08:55.041Z,30.10
2018-11-01T15:11:26.480Z,30.00
2018-11-01T15:13:58.033Z,30.00
2018-11-01T15:16:28.988Z,30.00
2018-11-01T15:19:03.996Z,30.00
2018-11-01T15:21:43.194Z,30.00
2018-11-01T15:24:15.343Z,30.00
2018-11-01T15:26:47.344Z,30.00
2018-11-01T15:29:19.135Z,30.00
2018-11-01T15:32:09.205Z,30.00
2018-11-01T15:34:40.946Z,30.00
2018-11-01T15:37:12.432Z,30.00
2018-11-01T15:39:45.782Z,30.00
2018-11-01T15:42:17.107Z,30.00
2018-11-01T15:44:48.592Z,30.00
2018-11-01T15:47:19.824Z,30.00
2018-11-01T15:49:52.835Z,29.90
2018-11-01T15:52:29.021Z,29.90
2018-11-01T15:55:10.393Z,29.90
2018-11-01T15:57:42.912Z,29.90
2018-11-01T16:00:15.624Z,29.90
2018-11-01T16:02:48.585Z,29.90
2018-11-01T16:05:20.243Z,29.90
2018-11-01T16:07:51.619Z,29.90
2018-11-01T16:10:23.841Z,29.90
2018-11-01T16:12:55.203Z,29.90
2018-11-01T16:15:29.993Z,29.80
2018-11-01T16:18:01.079Z,29.80
2018-11-01T16:20:33.723Z,29.80
2018-11-01T16:23:05.009Z,29.80
2018-11-01T16:25:36.512Z,29.80
2018-11-01T16:28:07.504Z,29.80
2018-11-01T16:30:38.911Z,29.80
2018-11-01T16:33:10.192Z,29.70
2018-11-01T16:35:41.464Z,29.80
2018-11-01T16:38:12.617Z,29.70
2018-11-01T16:40:44.037Z,29.70
2018-11-01T16:43:15.423Z,29.70
2018-11-01T16:45:47.940Z,29.70
2018-11-01T16:48:20.320Z,29.70
2018-11-01T16:50:52.061Z,29.70
2018-11-01T16:53:26.841Z,29.60
2018-11-01T16:55:58.347Z,29.60
2018-11-01T16:58:31.206Z,29.60
2018-11-01T17:01:06.436Z,29.60
2018-11-01T17:03:37.544Z,29.60
2018-11-01T17:06:09.299Z,29.60
2018-11-01T17:08:40.756Z,29.50
2018-11-01T17:11:12.464Z,29.50
2018-11-01T17:13:43.797Z,29.50
2018-11-01T17:16:15.501Z,29.50
2018-11-01T17:18:46.887Z,29.50
2018-11-01T17:21:19.932Z,29.40
2018-11-01T17:23:51.040Z,29.40
2018-11-01T17:26:22.420Z,29.40
2018-11-01T17:28:53.675Z,29.40
2018-11-01T17:31:25.053Z,29.40
2018-11-01T17:33:57.029Z,29.40
2018-11-01T17:36:28.836Z,29.40
2018-11-01T17:38:59.941Z,29.40
2018-11-01T17:41:31.624Z,29.40
2018-11-01T17:44:03.272Z,29.40
2018-11-01T17:46:34.597Z,29.50
2018-11-01T17:49:05.848Z,29.40
2018-11-01T17:51:37.712Z,29.40
2018-11-01T17:54:13.011Z,29.50
2018-11-01T17:56:45.140Z,29.40
2018-11-01T17:59:16.287Z,29.30
2018-11-01T18:01:47.728Z,29.30
2018-11-01T18:04:19.005Z,29.40
2018-11-01T18:06:50.215Z,29.40
2018-11-01T18:09:21.608Z,29.30
2018-11-01T18:11:52.899Z,29.20
2018-11-01T18:14:24.336Z,29.30
2018-11-01T18:16:55.883Z,29.30
2018-11-01T18:19:27.091Z,29.30
2018-11-01T18:22:00.057Z,29.30
2018-11-01T18:24:31.133Z,29.30
2018-11-01T18:27:02.583Z,29.20
2018-11-01T18:29:34.559Z,29.20
2018-11-01T18:32:06.380Z,29.10
2018-11-01T18:34:37.827Z,29.10
2018-11-01T18:37:09.424Z,29.10
2018-11-01T18:39:40.766Z,29.10
2018-11-01T18:42:12.082Z,29.10
2018-11-01T18:44:43.420Z,29.10
2018-11-01T18:47:14.737Z,29.10
2018-11-01T18:49:46.125Z,29.10
2018-11-01T18:52:17.726Z,29.10
2018-11-01T18:54:49.064Z,29.00
2018-11-01T18:57:20.535Z,28.90
2018-11-01T18:59:51.552Z,29.00
2018-11-01T19:02:23.024Z,28.90
2018-11-01T19:04:54.221Z,28.90
2018-11-01T19:07:25.866Z,28.90
2018-11-01T19:09:57.148Z,28.90
2018-11-01T19:12:28.752Z,28.90
2018-11-01T19:15:00.564Z,28.80
2018-11-01T19:17:32.059Z,28.80
2018-11-01T19:20:03.683Z,28.70
2018-11-01T19:22:36.459Z,28.70
2018-11-01T19:25:08.984Z,28.70
2018-11-01T19:27:41.056Z,28.80
2018-11-01T19:30:13.228Z,28.80
2018-11-01T19:32:45.166Z,28.70
2018-11-01T19:35:16.432Z,28.70
2018-11-01T19:37:47.722Z,28.70
2018-11-01T19:40:19.109Z,28.70
2018-11-01T19:42:50.476Z,28.70
2018-11-01T19:45:21.645Z,28.60
2018-11-01T19:47:53.221Z,28.60
2018-11-01T19:50:24.484Z,28.60
2018-11-01T19:52:56.076Z,28.60
2018-11-01T19:55:27.180Z,28.50
2018-11-01T19:57:58.631Z,28.50
2018-11-01T20:00:29.881Z,28.50
2018-11-01T20:03:01.576Z,28.50
2018-11-01T20:05:32.888Z,28.50
2018-11-01T20:08:04.943Z,28.50
2018-11-01T20:10:36.454Z,28.40
2018-11-01T20:13:07.707Z,28.40
2018-11-01T20:15:39.096Z,28.30
2018-11-01T20:18:10.471Z,28.30
2018-11-01T20:20:41.908Z,28.30
2018-11-01T20:23:14.868Z,28.30
2018-11-01T20:25:46.293Z,28.20
2018-11-01T20:28:17.920Z,28.30
2018-11-01T20:30:49.342Z,28.30
2018-11-01T20:33:24.054Z,28.30
2018-11-01T20:35:55.285Z,28.30
2018-11-01T20:38:26.719Z,28.20
2018-11-01T20:40:57.908Z,28.10
2018-11-01T20:43:29.512Z,28.10
2018-11-01T20:46:00.760Z,28.00
2018-11-01T20:48:32.091Z,28.00
2018-11-01T20:51:03.096Z,28.00
2018-11-01T20:53:34.496Z,28.00
2018-11-01T20:56:07.279Z,28.00
2018-11-01T20:58:39.189Z,28.00
2018-11-01T21:01:10.348Z,28.00
2018-11-01T21:03:41.791Z,28.00
2018-11-01T21:06:12.984Z,28.00
2018-11-01T21:08:44.643Z,28.00
2018-11-01T21:11:15.649Z,28.00
2018-11-01T21:13:47.036Z,27.80
2018-11-01T21:16:18.401Z,27.90
2018-11-01T21:18:49.797Z,27.90
2018-11-01T21:21:21.441Z,27.80
2018-11-01T21:23:55.114Z,27.80
2018-11-01T21:26:26.967Z,27.80
2018-11-01T21:28:58.670Z,27.80
2018-11-01T21:31:29.896Z,27.80
2018-11-01T21:34:01.881Z,27.70
2018-11-01T21:36:33.327Z,27.70
2018-11-01T21:39:06.297Z,27.60
2018-11-01T21:41:37.520Z,27.70
2018-11-01T21:44:08.888Z,27.70
2018-11-01T21:46:40.288Z,27.60
2018-11-01T21:49:11.696Z,27.60
2018-11-01T21:51:43.038Z,27.60
2018-11-01T21:54:14.376Z,27.60
2018-11-01T21:56:45.696Z,27.60
2018-11-01T21:59:17.518Z,27.60
2018-11-01T22:01:48.875Z,27.60
2018-11-01T22:04:20.526Z,27.70
2018-11-01T22:06:51.655Z,27.70
2018-11-01T22:09:23.172Z,27.60
2018-11-01T22:11:54.636Z,27.60
2018-11-01T22:14:26.169Z,27.50
2018-11-01T22:16:57.479Z,27.50
2018-11-01T22:19:29.199Z,27.40
2018-11-01T22:22:00.460Z,27.40
2018-11-01T22:24:32.719Z,27.50
2018-11-01T22:27:03.786Z,27.40
2018-11-01T22:29:35.358Z,27.50
2018-11-01T22:32:06.508Z,27.50
2018-11-01T22:34:38.220Z,27.40
2018-11-01T22:37:09.652Z,27.40
2018-11-01T22:39:41.248Z,27.40
2018-11-01T22:42:12.417Z,27.40
2018-11-01T22:44:43.984Z,27.40
2018-11-01T22:47:15.335Z,27.40
2018-11-01T22:49:47.157Z,27.30
2018-11-01T22:52:18.362Z,27.40
2018-11-01T22:54:50.168Z,27.40
2018-11-01T22:57:21.270Z,27.40
2018-11-01T22:59:52.903Z,27.40
2018-11-01T23:02:24.188Z,27.30
2018-11-01T23:04:56.032Z,27.30
2018-11-01T23:07:27.287Z,27.30
2018-11-01T23:09:59.591Z,27.30
2018-11-01T23:12:30.698Z,27.20
2018-11-01T23:15:02.988Z,27.20
2018-11-01T23:17:34.252Z,27.20
2018-11-01T23:20:06.041Z,27.20
2018-11-01T23:22:38.621Z,27.10
2018-11-01T23:25:11.278Z,27.20
2018-11-01T23:27:42.683Z,27.10
2018-11-01T23:30:14.018Z,27.10
2018-11-01T23:32:45.405Z,27.10
2018-11-01T23:35:16.908Z,27.00
2018-11-01T23:37:52.921Z,26.90
2018-11-01T23:40:29.096Z,26.90
2018-11-01T23:43:04.860Z,26.90
2018-11-01T23:45:42.252Z,26.90
2018-11-01T23:48:12.188Z,26.90
2018-11-01T23:51:14.566Z,26.90
2018-11-01T23:53:48.195Z,26.90
2018-11-01T23:56:19.932Z,26.90
2018-11-01T23:58:51.204Z,26.90
